Terminal Aerodrome Forecast
Issued by NWS Cleveland, OH

Home | Current Version | Previous Version | Graphics & Text | Print | Product List | Glossary Off
Versions: 1 2 3 4 5 6 7 8 9 10 11 12 13 14 15 16 17 18 19 20 21 22 23 24

866
FTUS41 KCLE 222327
TAFERI
TAF
KERI 222327Z 2300/2324 17012G18KT P6SM -SHRA SCT040 OVC080
      TEMPO 2306/2310 BKN030
     FM231100 20010KT P6SM BKN040
     FM231500 22014G22KT 6SM -SHRA BKN030 OVC045
     FM232100 23018G28KT 5SM -SHRASN OVC022=

USA.gov is the U.S. government's official web portal to all federal, state and local government web resources and services.